Time;durP1;ratioP1;P1;durP2;ratioP2;P2;SDS_P1;SDS_P2;PMS_P1;PMS_P2;Temp;Humidity;BMP_temperature;BMP_pressure;BME280_temperature;BME280_humidity;BME280_pressure;Samples;Min_cycle;Max_cycle;Signal;HPM_P1;HPM_P2
2021/01/29 00:00:39;;;;;;;0.63;0.63;;;;;;;;;;10380466;28;20240;-72
2021/01/29 00:05:42;;;;;;;1.03;0.57;;;;;;;;;;10381155;28;20284;-70
2021/01/29 00:10:43;;;;;;;1.00;0.83;;;;;;;;;;10380895;28;20229;-71
2021/01/29 00:15:46;;;;;;;1.67;1.07;;;;;;;;;;10378376;28;20277;-71
2021/01/29 00:20:47;;;;;;;1.23;0.90;;;;;;;;;;10376456;28;20300;-71
2021/01/29 00:25:50;;;;;;;0.83;0.60;;;;;;;;;;10374081;28;20261;-72
2021/01/29 00:30:54;;;;;;;1.20;0.50;;;;;;;;;;10367886;28;20234;-72
2021/01/29 00:35:56;;;;;;;2.00;1.03;;;;;;;;;;10366845;28;20263;-69
2021/01/29 00:40:58;;;;;;;1.57;0.70;;;;;;;;;;10366007;28;20214;-69
2021/01/29 00:46:03;;;;;;;0.47;0.43;;;;;;;;;;10361942;28;20226;-69
2021/01/29 00:51:05;;;;;;;1.10;0.77;;;;;;;;;;10356543;28;20245;-71
2021/01/29 00:56:07;;;;;;;1.63;0.93;;;;;;;;;;10350055;28;20288;-71
2021/01/29 01:01:09;;;;;;;0.77;0.70;;;;;;;;;;10365868;28;20273;-71
2021/01/29 01:06:11;;;;;;;2.47;0.80;;;;;;;;;;10362574;28;20198;-72
2021/01/29 01:11:12;;;;;;;1.00;0.80;;;;;;;;;;10365626;28;20214;-72
2021/01/29 01:16:15;;;;;;;1.37;0.90;;;;;;;;;;10367256;28;20198;-71
2021/01/29 01:21:17;;;;;;;1.07;0.83;;;;;;;;;;10365196;28;20222;-70
2021/01/29 01:26:18;;;;;;;0.67;0.50;;;;;;;;;;10362323;28;20285;-72
2021/01/29 01:31:21;;;;;;;0.80;0.67;;;;;;;;;;10361746;28;20294;-71
2021/01/29 01:36:22;;;;;;;0.50;0.50;;;;;;;;;;10347351;28;20209;-71
2021/01/29 01:41:24;;;;;;;1.13;0.80;;;;;;;;;;10361822;28;20530;-71
2021/01/29 01:46:26;;;;;;;0.97;0.80;;;;;;;;;;10364029;28;20232;-72
2021/01/29 01:51:34;;;;;;;0.73;0.63;;;;;;;;;;10364755;28;20203;-72
2021/01/29 01:56:39;;;;;;;0.83;0.73;;;;;;;;;;10364327;28;20656;-71
2021/01/29 02:01:42;;;;;;;1.00;0.70;;;;;;;;;;10360180;28;20222;-72
2021/01/29 02:06:48;;;;;;;1.97;0.70;;;;;;;;;;10365233;28;20214;-72
2021/01/29 02:11:50;;;;;;;0.90;0.77;;;;;;;;;;10359443;28;20215;-73
2021/01/29 02:16:58;;;;;;;0.70;0.60;;;;;;;;;;10354947;28;20258;-71
2021/01/29 02:22:30;;;;;;;0.53;0.50;;;;;;;;;;10361644;28;20214;-70
2021/01/29 02:27:43;;;;;;;1.07;0.60;;;;;;;;;;10233780;28;20508;-71
2021/01/29 02:33:08;;;;;;;0.70;0.53;;;;;;;;;;10357029;28;20241;-71
2021/01/29 02:38:40;;;;;;;1.80;0.63;;;;;;;;;;10363687;28;20689;-70
2021/01/29 02:43:49;;;;;;;0.93;0.50;;;;;;;;;;10363811;28;20233;-71
2021/01/29 02:48:55;;;;;;;1.17;0.40;;;;;;;;;;10357540;28;20198;-72
2021/01/29 02:54:00;;;;;;;0.87;0.50;;;;;;;;;;10364302;28;20218;-72
2021/01/29 02:59:09;;;;;;;0.60;0.60;;;;;;;;;;10360100;28;20218;-71
2021/01/29 03:04:13;;;;;;;1.10;0.50;;;;;;;;;;10349289;28;20226;-71
2021/01/29 03:09:17;;;;;;;1.23;0.60;;;;;;;;;;10362356;28;20202;-71
2021/01/29 03:14:23;;;;;;;1.23;0.60;;;;;;;;;;10356023;28;20215;-72
2021/01/29 03:19:27;;;;;;;1.80;0.47;;;;;;;;;;10367147;28;20238;-72
2021/01/29 03:24:32;;;;;;;1.53;0.60;;;;;;;;;;10355752;28;20206;-71
2021/01/29 03:29:37;;;;;;;0.47;0.40;;;;;;;;;;10358036;28;20225;-70
2021/01/29 03:34:45;;;;;;;0.57;0.30;;;;;;;;;;10357367;28;20261;-72
2021/01/29 03:39:47;;;;;;;0.53;0.43;;;;;;;;;;10357115;28;20747;-71
2021/01/29 03:44:54;;;;;;;0.33;0.23;;;;;;;;;;10341323;28;20218;-72
2021/01/29 03:49:59;;;;;;;0.30;0.20;;;;;;;;;;10349427;28;20278;-70
2021/01/29 03:55:05;;;;;;;0.43;0.40;;;;;;;;;;10361310;28;20201;-72
2021/01/29 04:00:13;;;;;;;1.93;0.47;;;;;;;;;;10357086;28;20237;-71
2021/01/29 04:05:17;;;;;;;1.07;0.47;;;;;;;;;;10355344;28;20191;-71
2021/01/29 04:10:20;;;;;;;1.30;0.70;;;;;;;;;;10361810;28;20258;-71
2021/01/29 04:15:26;;;;;;;0.53;0.53;;;;;;;;;;10359601;28;20190;-72
2021/01/29 04:20:32;;;;;;;1.70;0.80;;;;;;;;;;10356489;28;20302;-70
2021/01/29 04:25:37;;;;;;;1.33;1.00;;;;;;;;;;10353289;28;20686;-70
2021/01/29 04:30:42;;;;;;;1.20;0.50;;;;;;;;;;10355769;28;20250;-70
2021/01/29 04:35:44;;;;;;;0.67;0.33;;;;;;;;;;10362348;28;20293;-70
2021/01/29 04:40:49;;;;;;;0.40;0.40;;;;;;;;;;10361872;28;20368;-70
2021/01/29 04:46:03;;;;;;;0.20;0.20;;;;;;;;;;10356756;28;20753;-70
2021/01/29 04:51:18;;;;;;;1.17;0.37;;;;;;;;;;10361574;28;20214;-72
2021/01/29 04:56:22;;;;;;;0.97;0.30;;;;;;;;;;10364747;28;20273;-72
2021/01/29 05:01:37;;;;;;;0.30;0.30;;;;;;;;;;10364735;28;20230;-71
2021/01/29 05:06:48;;;;;;;1.07;0.40;;;;;;;;;;10347942;28;20233;-71
2021/01/29 05:12:00;;;;;;;0.30;0.20;;;;;;;;;;10367027;28;20660;-71
2021/01/29 05:17:18;;;;;;;0.10;0.10;;;;;;;;;;10360228;28;20190;-72
2021/01/29 05:22:39;;;;;;;0.40;0.30;;;;;;;;;;10366379;28;20237;-70
2021/01/29 05:28:04;;;;;;;0.20;0.20;;;;;;;;;;10367960;28;20194;-71
2021/01/29 05:33:29;;;;;;;0.93;0.23;;;;;;;;;;10352697;28;20296;-71
2021/01/29 05:38:44;;;;;;;2.97;0.47;;;;;;;;;;10357229;28;20252;-72
2021/01/29 05:44:04;;;;;;;0.50;0.20;;;;;;;;;;10360186;28;20226;-71
2021/01/29 05:49:12;;;;;;;1.70;0.63;;;;;;;;;;10336823;28;20219;-70
2021/01/29 05:54:29;;;;;;;0.20;0.20;;;;;;;;;;10359314;28;20242;-71
2021/01/29 05:59:46;;;;;;;0.70;0.30;;;;;;;;;;10362324;28;20289;-71
2021/01/29 06:05:05;;;;;;;0.37;0.37;;;;;;;;;;10361934;28;20765;-71
2021/01/29 06:10:22;;;;;;;1.57;0.47;;;;;;;;;;10365682;28;20183;-70
2021/01/29 06:15:33;;;;;;;0.43;0.43;;;;;;;;;;10319999;28;20647;-71
2021/01/29 06:20:57;;;;;;;1.53;0.43;;;;;;;;;;10364323;28;20249;-71
2021/01/29 06:26:10;;;;;;;2.13;0.60;;;;;;;;;;10361727;28;20512;-71
2021/01/29 06:31:19;;;;;;;3.10;0.63;;;;;;;;;;10357973;28;20238;-71
2021/01/29 06:36:30;;;;;;;4.20;0.80;;;;;;;;;;10361051;28;20332;-71
2021/01/29 06:41:43;;;;;;;0.90;0.50;;;;;;;;;;10351214;28;20214;-70
2021/01/29 06:46:58;;;;;;;0.53;0.43;;;;;;;;;;10355243;28;20189;-70
2021/01/29 06:52:23;;;;;;;2.03;0.43;;;;;;;;;;10358687;28;20362;-70
2021/01/29 06:57:31;;;;;;;1.47;0.40;;;;;;;;;;10354867;28;20195;-70
2021/01/29 07:02:49;;;;;;;0.57;0.40;;;;;;;;;;10343475;28;20257;-71
2021/01/29 07:08:06;;;;;;;1.30;0.47;;;;;;;;;;10378375;28;20208;-70
2021/01/29 07:13:15;;;;;;;1.33;0.40;;;;;;;;;;10382081;28;20219;-70
2021/01/29 07:18:24;;;;;;;0.20;0.20;;;;;;;;;;10369187;28;20210;-70
2021/01/29 07:23:41;;;;;;;1.23;0.50;;;;;;;;;;10363651;28;20677;-68
2021/01/29 07:28:49;;;;;;;0.97;0.37;;;;;;;;;;10359019;28;20202;-71
2021/01/29 07:33:54;;;;;;;0.20;0.20;;;;;;;;;;10358156;28;20211;-71
2021/01/29 07:39:13;;;;;;;0.90;0.37;;;;;;;;;;10351997;28;20214;-72
2021/01/29 07:44:24;;;;;;;0.40;0.40;;;;;;;;;;10353588;28;20225;-70
2021/01/29 07:49:43;;;;;;;0.83;0.30;;;;;;;;;;10349323;28;20642;-70
2021/01/29 07:54:52;;;;;;;1.80;0.37;;;;;;;;;;10359115;28;20702;-70
2021/01/29 08:00:04;;;;;;;0.57;0.30;;;;;;;;;;10349680;28;20231;-71
2021/01/29 08:05:18;;;;;;;4.30;0.47;;;;;;;;;;10349958;28;20190;-72
2021/01/29 08:10:26;;;;;;;0.20;0.20;;;;;;;;;;10368630;28;20218;-71
2021/01/29 08:15:29;;;;;;;1.37;0.40;;;;;;;;;;10367787;28;20229;-70
2021/01/29 08:20:37;;;;;;;0.20;0.10;;;;;;;;;;10368156;28;20214;-71
2021/01/29 08:25:55;;;;;;;1.23;0.17;;;;;;;;;;10367605;28;20195;-71
2021/01/29 08:31:12;;;;;;;1.57;0.20;;;;;;;;;;10364862;28;20222;-70
2021/01/29 08:36:26;;;;;;;0.70;0.30;;;;;;;;;;10365999;28;20319;-71
2021/01/29 08:41:36;;;;;;;0.17;0.17;;;;;;;;;;10361242;28;20246;-70
2021/01/29 08:46:41;;;;;;;0.20;0.20;;;;;;;;;;10366940;28;20830;-71
2021/01/29 08:51:45;;;;;;;0.33;0.20;;;;;;;;;;10362198;28;20206;-71
2021/01/29 08:56:53;;;;;;;2.10;0.20;;;;;;;;;;10356480;28;20637;-71
2021/01/29 09:01:58;;;;;;;0.80;0.40;;;;;;;;;;10353084;28;20290;-71
2021/01/29 09:07:04;;;;;;;0.40;0.40;;;;;;;;;;10367439;28;20244;-73
2021/01/29 09:12:14;;;;;;;1.13;0.40;;;;;;;;;;10359154;28;20245;-73
2021/01/29 09:17:19;;;;;;;0.30;0.20;;;;;;;;;;10366329;28;20225;-71
2021/01/29 09:22:24;;;;;;;0.30;0.30;;;;;;;;;;10362521;28;20834;-70
2021/01/29 09:27:44;;;;;;;0.53;0.20;;;;;;;;;;10359131;28;20301;-71
2021/01/29 09:32:50;;;;;;;0.40;0.30;;;;;;;;;;10365468;28;20547;-72
2021/01/29 09:37:54;;;;;;;0.47;0.20;;;;;;;;;;10365075;28;20531;-71
2021/01/29 09:43:04;;;;;;;0.97;0.40;;;;;;;;;;10362855;28;20549;-71
2021/01/29 09:48:07;;;;;;;0.77;0.40;;;;;;;;;;10361705;28;20538;-71
2021/01/29 09:53:18;;;;;;;1.07;0.97;;;;;;;;;;10358577;28;20225;-71
2021/01/29 09:58:25;;;;;;;1.17;0.70;;;;;;;;;;10357516;28;20207;-70
2021/01/29 10:03:30;;;;;;;0.50;0.50;;;;;;;;;;10364139;28;20236;-69
2021/01/29 10:08:34;;;;;;;1.27;0.50;;;;;;;;;;10386076;28;20195;-71
2021/01/29 10:13:43;;;;;;;0.80;0.60;;;;;;;;;;10360402;28;20264;-71
2021/01/29 10:18:51;;;;;;;1.90;0.50;;;;;;;;;;10367053;28;20434;-71
2021/01/29 10:23:57;;;;;;;0.43;0.30;;;;;;;;;;10364188;28;20214;-71
2021/01/29 10:29:09;;;;;;;0.60;0.50;;;;;;;;;;10356531;28;20865;-70
2021/01/29 10:34:20;;;;;;;0.60;0.60;;;;;;;;;;10350788;28;20228;-71
2021/01/29 10:39:23;;;;;;;0.83;0.60;;;;;;;;;;10362229;28;20538;-70
2021/01/29 10:44:37;;;;;;;1.80;1.00;;;;;;;;;;10357480;28;20302;-71
2021/01/29 10:49:45;;;;;;;0.80;0.73;;;;;;;;;;10359553;28;20191;-71
2021/01/29 10:54:47;;;;;;;0.90;0.90;;;;;;;;;;10358881;28;20217;-71
2021/01/29 10:59:53;;;;;;;0.73;0.73;;;;;;;;;;10343223;28;20226;-71
2021/01/29 11:04:58;;;;;;;0.60;0.60;;;;;;;;;;10353794;28;20364;-70
2021/01/29 11:10:04;;;;;;;0.90;0.90;;;;;;;;;;10345254;28;20338;-70
2021/01/29 11:15:12;;;;;;;0.67;0.40;;;;;;;;;;10362539;28;20272;-70
2021/01/29 11:20:17;;;;;;;0.50;0.50;;;;;;;;;;10341841;28;20215;-70
2021/01/29 11:25:43;;;;;;;0.70;0.70;;;;;;;;;;10358029;28;20297;-71
2021/01/29 11:30:51;;;;;;;0.40;0.40;;;;;;;;;;10346742;28;20289;-70
2021/01/29 11:35:57;;;;;;;0.73;0.50;;;;;;;;;;10362328;28;20201;-70
2021/01/29 11:41:04;;;;;;;1.90;0.70;;;;;;;;;;10338251;28;20246;-71
2021/01/29 11:46:13;;;;;;;0.50;0.50;;;;;;;;;;10344066;28;20204;-70
2021/01/29 11:51:21;;;;;;;1.07;0.67;;;;;;;;;;10369782;28;20224;-70
2021/01/29 11:56:25;;;;;;;1.10;0.77;;;;;;;;;;10366783;28;20615;-71
2021/01/29 12:01:30;;;;;;;1.10;0.40;;;;;;;;;;10368162;28;20214;-71
2021/01/29 12:06:40;;;;;;;0.30;0.30;;;;;;;;;;10366384;28;20226;-70
2021/01/29 12:11:46;;;;;;;0.20;0.20;;;;;;;;;;10367741;28;20287;-71
2021/01/29 12:16:55;;;;;;;0.80;0.20;;;;;;;;;;10359863;28;20229;-71
2021/01/29 12:22:04;;;;;;;0.73;0.40;;;;;;;;;;10373695;28;20218;-71
2021/01/29 12:27:08;;;;;;;0.47;0.40;;;;;;;;;;10370139;28;20592;-74
2021/01/29 12:32:30;;;;;;;0.93;0.67;;;;;;;;;;10369637;28;20211;-70
2021/01/29 12:37:34;;;;;;;1.07;0.37;;;;;;;;;;10334472;28;20210;-70
2021/01/29 12:42:45;;;;;;;1.63;0.50;;;;;;;;;;10370235;28;20709;-72
2021/01/29 12:47:54;;;;;;;2.33;0.50;;;;;;;;;;10380781;28;20302;-71
2021/01/29 12:53:02;;;;;;;1.47;0.60;;;;;;;;;;10370298;28;20289;-71
2021/01/29 12:58:08;;;;;;;0.73;0.73;;;;;;;;;;10374724;28;20687;-71
2021/01/29 13:03:16;;;;;;;0.47;0.47;;;;;;;;;;10364376;28;20237;-71
2021/01/29 13:08:24;;;;;;;0.90;0.60;;;;;;;;;;10352464;28;20611;-71
2021/01/29 13:13:32;;;;;;;1.10;0.67;;;;;;;;;;10378541;28;20241;-72
2021/01/29 13:18:44;;;;;;;3.00;0.70;;;;;;;;;;10380787;28;20417;-71
2021/01/29 13:23:57;;;;;;;0.90;0.60;;;;;;;;;;10363319;28;20675;-71
2021/01/29 13:29:00;;;;;;;0.70;0.50;;;;;;;;;;10365178;28;20281;-69
2021/01/29 13:34:12;;;;;;;0.40;0.40;;;;;;;;;;10366299;28;20233;-70
2021/01/29 13:39:22;;;;;;;0.73;0.47;;;;;;;;;;10362564;28;20269;-71
2021/01/29 13:44:33;;;;;;;1.10;0.50;;;;;;;;;;10353214;28;20861;-71
2021/01/29 13:49:36;;;;;;;0.60;0.17;;;;;;;;;;10369291;28;20241;-71
2021/01/29 13:54:39;;;;;;;1.03;0.40;;;;;;;;;;10371514;28;20408;-71
2021/01/29 13:59:43;;;;;;;1.77;0.60;;;;;;;;;;10346500;28;20315;-72
2021/01/29 14:04:47;;;;;;;0.23;0.23;;;;;;;;;;10361881;28;20698;-73
2021/01/29 14:09:51;;;;;;;0.60;0.47;;;;;;;;;;10359866;28;20633;-71
2021/01/29 14:14:58;;;;;;;0.73;0.43;;;;;;;;;;10364486;28;20572;-71
2021/01/29 14:20:07;;;;;;;0.20;0.20;;;;;;;;;;10369655;28;20217;-71
2021/01/29 14:25:14;;;;;;;1.00;0.30;;;;;;;;;;10354292;28;20207;-71
2021/01/29 14:30:21;;;;;;;2.00;0.40;;;;;;;;;;10363275;28;20198;-72
2021/01/29 14:35:27;;;;;;;0.40;0.40;;;;;;;;;;10365423;28;20609;-71
2021/01/29 14:40:43;;;;;;;1.67;0.40;;;;;;;;;;10364532;28;20214;-71
2021/01/29 14:45:48;;;;;;;1.47;0.50;;;;;;;;;;10356642;28;20206;-72
2021/01/29 14:51:03;;;;;;;1.13;0.30;;;;;;;;;;10362677;28;20226;-71
2021/01/29 14:56:08;;;;;;;0.27;0.27;;;;;;;;;;10358622;28;20202;-72
2021/01/29 15:01:13;;;;;;;0.73;0.37;;;;;;;;;;10364091;28;20222;-71
2021/01/29 15:06:18;;;;;;;0.20;0.20;;;;;;;;;;10360015;28;20226;-71
2021/01/29 15:11:23;;;;;;;1.17;0.40;;;;;;;;;;10358814;28;20314;-69
2021/01/29 15:16:46;;;;;;;0.40;0.17;;;;;;;;;;10361692;28;20531;-71
2021/01/29 15:21:50;;;;;;;0.10;0.10;;;;;;;;;;10360238;28;20227;-71
2021/01/29 15:26:52;;;;;;;0.20;0.20;;;;;;;;;;10374980;28;20654;-71
2021/01/29 15:31:55;;;;;;;1.43;0.40;;;;;;;;;;10365447;28;20218;-71
2021/01/29 15:36:58;;;;;;;0.53;0.20;;;;;;;;;;10360398;28;20285;-70
2021/01/29 15:42:04;;;;;;;0.73;0.23;;;;;;;;;;10367337;28;20226;-71
2021/01/29 15:47:10;;;;;;;0.20;0.20;;;;;;;;;;10345484;28;20265;-70
2021/01/29 15:52:14;;;;;;;0.50;0.37;;;;;;;;;;10366147;28;20208;-71
2021/01/29 15:57:24;;;;;;;0.30;0.20;;;;;;;;;;10358173;28;20191;-70
2021/01/29 16:02:44;;;;;;;0.03;0.03;;;;;;;;;;10363789;28;20228;-71
2021/01/29 16:07:53;;;;;;;1.00;0.30;;;;;;;;;;10364132;28;20186;-72
2021/01/29 16:13:08;;;;;;;0.70;0.30;;;;;;;;;;10361732;28;20214;-71
2021/01/29 16:18:11;;;;;;;0.50;0.40;;;;;;;;;;10370530;28;20289;-71
2021/01/29 16:23:19;;;;;;;1.20;0.20;;;;;;;;;;10361165;28;20297;-71
2021/01/29 16:28:22;;;;;;;1.20;0.50;;;;;;;;;;10358672;28;20202;-71
2021/01/29 16:33:27;;;;;;;0.40;0.40;;;;;;;;;;10358858;28;20253;-71
2021/01/29 16:38:30;;;;;;;0.30;0.30;;;;;;;;;;10348144;28;20294;-71
2021/01/29 16:43:34;;;;;;;0.50;0.20;;;;;;;;;;10366918;28;20221;-71
2021/01/29 16:48:37;;;;;;;1.53;0.67;;;;;;;;;;10369800;28;20257;-71
2021/01/29 16:53:40;;;;;;;2.00;0.97;;;;;;;;;;10362491;28;20222;-71
2021/01/29 16:58:43;;;;;;;2.83;0.80;;;;;;;;;;10358938;28;20198;-72
2021/01/29 17:03:46;;;;;;;2.67;0.80;;;;;;;;;;10355128;28;20333;-72
2021/01/29 17:08:50;;;;;;;3.33;0.90;;;;;;;;;;10368623;28;20288;-70
2021/01/29 17:13:51;;;;;;;2.80;1.00;;;;;;;;;;10366111;28;20725;-70
2021/01/29 17:18:59;;;;;;;0.87;0.50;;;;;;;;;;10350092;28;20221;-70
2021/01/29 17:24:05;;;;;;;2.73;0.73;;;;;;;;;;10349177;28;20321;-69
2021/01/29 17:29:08;;;;;;;2.77;0.80;;;;;;;;;;10365580;28;20313;-71
2021/01/29 17:34:14;;;;;;;1.00;0.60;;;;;;;;;;10357692;28;20321;-70
2021/01/29 17:39:28;;;;;;;1.90;0.70;;;;;;;;;;10362978;28;20302;-70
2021/01/29 17:44:33;;;;;;;2.17;0.83;;;;;;;;;;10361314;28;20225;-72
2021/01/29 17:49:39;;;;;;;1.70;0.63;;;;;;;;;;10366410;28;20252;-72
2021/01/29 17:54:44;;;;;;;4.03;0.93;;;;;;;;;;10344291;28;20226;-74
2021/01/29 17:59:46;;;;;;;1.87;0.93;;;;;;;;;;10361717;28;20548;-71
2021/01/29 18:04:53;;;;;;;2.43;1.10;;;;;;;;;;10360945;28;20241;-70
2021/01/29 18:10:00;;;;;;;4.33;1.00;;;;;;;;;;10342531;28;20701;-71
2021/01/29 18:15:12;;;;;;;4.50;1.00;;;;;;;;;;10359470;28;20198;-72
2021/01/29 18:20:25;;;;;;;2.13;0.80;;;;;;;;;;10366147;28;20324;-70
2021/01/29 18:25:27;;;;;;;1.80;0.97;;;;;;;;;;10362289;28;20207;-71
2021/01/29 18:30:30;;;;;;;2.37;0.60;;;;;;;;;;10353037;28;20221;-70
2021/01/29 18:35:32;;;;;;;1.00;0.50;;;;;;;;;;10360442;28;20190;-69
2021/01/29 18:40:35;;;;;;;2.63;0.97;;;;;;;;;;10363140;28;20297;-70
2021/01/29 18:45:36;;;;;;;5.10;1.40;;;;;;;;;;10364143;28;20186;-70
2021/01/29 18:50:39;;;;;;;4.87;1.70;;;;;;;;;;10362549;28;20671;-69
2021/01/29 18:55:41;;;;;;;5.27;1.50;;;;;;;;;;10372705;28;20190;-70
2021/01/29 19:00:42;;;;;;;2.03;0.97;;;;;;;;;;10364753;28;20226;-71
2021/01/29 19:05:45;;;;;;;4.67;1.50;;;;;;;;;;10358478;28;20206;-70
2021/01/29 19:10:47;;;;;;;4.00;1.00;;;;;;;;;;10375740;28;20248;-69
2021/01/29 19:15:50;;;;;;;6.10;1.50;;;;;;;;;;10349787;28;20202;-71
2021/01/29 19:20:52;;;;;;;2.70;1.33;;;;;;;;;;10345704;28;20214;-69
2021/01/29 19:25:54;;;;;;;1.67;0.83;;;;;;;;;;10363071;28;20614;-70
2021/01/29 19:30:55;;;;;;;3.40;1.60;;;;;;;;;;10362274;28;20293;-70
2021/01/29 19:35:58;;;;;;;2.43;1.20;;;;;;;;;;10359094;28;20252;-70
2021/01/29 19:41:00;;;;;;;4.53;1.27;;;;;;;;;;10347019;28;20246;-70
2021/01/29 19:46:05;;;;;;;3.90;1.40;;;;;;;;;;10353715;28;20241;-71
2021/01/29 19:51:08;;;;;;;4.80;1.20;;;;;;;;;;10361705;28;20218;-71
2021/01/29 19:56:09;;;;;;;2.30;1.00;;;;;;;;;;10348130;28;20627;-71
2021/01/29 20:01:11;;;;;;;1.43;0.60;;;;;;;;;;10364029;28;20225;-70
2021/01/29 20:06:14;;;;;;;2.07;0.80;;;;;;;;;;10363448;28;20249;-71
2021/01/29 20:11:16;;;;;;;1.50;0.70;;;;;;;;;;10365012;28;20292;-71
2021/01/29 20:16:17;;;;;;;3.37;1.20;;;;;;;;;;10382134;28;20715;-70
2021/01/29 20:21:20;;;;;;;1.17;0.47;;;;;;;;;;10370757;28;20233;-70
2021/01/29 20:26:22;;;;;;;2.67;0.90;;;;;;;;;;10375790;28;20198;-70
2021/01/29 20:31:23;;;;;;;0.83;0.60;;;;;;;;;;10387252;28;20285;-70
2021/01/29 20:36:26;;;;;;;1.70;0.47;;;;;;;;;;10367312;28;20190;-71
2021/01/29 20:41:27;;;;;;;0.30;0.23;;;;;;;;;;10367309;28;20277;-71
2021/01/29 20:46:29;;;;;;;2.10;1.00;;;;;;;;;;10369489;28;20226;-70
2021/01/29 20:51:32;;;;;;;0.73;0.50;;;;;;;;;;10364368;28;20202;-71
2021/01/29 20:56:33;;;;;;;0.93;0.30;;;;;;;;;;10365892;28;20209;-70
2021/01/29 21:01:36;;;;;;;1.27;0.37;;;;;;;;;;10365979;28;20242;-70
2021/01/29 21:06:39;;;;;;;0.53;0.30;;;;;;;;;;10372609;28;20198;-71
2021/01/29 21:11:41;;;;;;;1.30;0.60;;;;;;;;;;10364705;28;20206;-70
2021/01/29 21:16:43;;;;;;;2.20;0.83;;;;;;;;;;10365030;28;20905;-70
2021/01/29 21:21:47;;;;;;;1.23;0.70;;;;;;;;;;10367368;28;20587;-69
2021/01/29 21:26:49;;;;;;;0.93;0.57;;;;;;;;;;10365017;28;20198;-70
2021/01/29 21:31:58;;;;;;;1.43;0.77;;;;;;;;;;10364479;28;20218;-70
2021/01/29 21:37:03;;;;;;;2.90;0.80;;;;;;;;;;10367189;28;20217;-70
2021/01/29 21:42:06;;;;;;;0.70;0.40;;;;;;;;;;10368935;28;20222;-70
2021/01/29 21:47:09;;;;;;;1.10;0.60;;;;;;;;;;10363781;28;20658;-70
2021/01/29 21:52:12;;;;;;;0.33;0.20;;;;;;;;;;10374507;28;20221;-70
2021/01/29 21:57:14;;;;;;;0.40;0.40;;;;;;;;;;10372339;28;20201;-71
2021/01/29 22:02:15;;;;;;;1.13;0.67;;;;;;;;;;10351762;28;20242;-69
2021/01/29 22:07:18;;;;;;;2.10;0.70;;;;;;;;;;10371172;28;20626;-72
2021/01/29 22:12:19;;;;;;;2.27;0.73;;;;;;;;;;10370078;28;20218;-70
2021/01/29 22:17:21;;;;;;;1.20;0.80;;;;;;;;;;10368000;28;20282;-69
2021/01/29 22:22:24;;;;;;;2.93;1.20;;;;;;;;;;10338350;28;20468;-71
2021/01/29 22:27:25;;;;;;;0.83;0.50;;;;;;;;;;10358096;28;20606;-71
2021/01/29 22:32:27;;;;;;;0.50;0.30;;;;;;;;;;10365793;28;20214;-70
2021/01/29 22:37:29;;;;;;;1.23;0.60;;;;;;;;;;10349068;28;20277;-71
2021/01/29 22:42:31;;;;;;;2.00;0.43;;;;;;;;;;10364453;28;20222;-70
2021/01/29 22:47:33;;;;;;;1.87;0.67;;;;;;;;;;10364398;28;20190;-71
2021/01/29 22:52:35;;;;;;;1.07;0.30;;;;;;;;;;10364905;28;20206;-70
2021/01/29 22:57:37;;;;;;;0.17;0.13;;;;;;;;;;10362966;28;20320;-69
2021/01/29 23:02:39;;;;;;;0.60;0.53;;;;;;;;;;10364456;28;20236;-71
2021/01/29 23:07:41;;;;;;;1.13;0.50;;;;;;;;;;10367605;28;20221;-71
2021/01/29 23:12:43;;;;;;;1.97;0.83;;;;;;;;;;10360912;28;20219;-70
2021/01/29 23:17:45;;;;;;;0.33;0.33;;;;;;;;;;10346402;28;20198;-71
2021/01/29 23:22:48;;;;;;;0.83;0.30;;;;;;;;;;10346383;28;20234;-69
2021/01/29 23:27:49;;;;;;;0.53;0.53;;;;;;;;;;10342912;28;20202;-72
2021/01/29 23:32:51;;;;;;;1.80;0.80;;;;;;;;;;10350970;28;20218;-71
2021/01/29 23:37:54;;;;;;;0.10;0.10;;;;;;;;;;10354257;28;20215;-72
2021/01/29 23:42:56;;;;;;;1.93;0.40;;;;;;;;;;10342367;28;20318;-71
2021/01/29 23:47:58;;;;;;;1.77;0.73;;;;;;;;;;10361474;28;20198;-72
2021/01/29 23:53:04;;;;;;;0.57;0.30;;;;;;;;;;10355535;28;20226;-69
2021/01/29 23:58:06;;;;;;;2.33;0.50;;;;;;;;;;10355406;28;20666;-70
